Time;durP1;ratioP1;P1;durP2;ratioP2;P2;SDS_P1;SDS_P2;PMS_P1;PMS_P2;Temp;Humidity;BMP_temperature;BMP_pressure;BME280_temperature;BME280_humidity;BME280_pressure;Samples;Min_cycle;Max_cycle;Signal;HPM_P1;HPM_P2
2022/09/10 00:00:35;;;;;;;39.72;16.52;;;14.00;99.90;;;;;;4936390;29;20056;-81
2022/09/10 00:03:01;;;;;;;42.42;16.73;;;14.00;99.90;;;;;;4936475;29;20105;-81
2022/09/10 00:05:28;;;;;;;42.40;16.30;;;14.00;99.90;;;;;;4919948;29;20543;-82
2022/09/10 00:07:54;;;;;;;43.05;15.93;;;14.00;99.90;;;;;;4937473;29;20043;-82
2022/09/10 00:10:20;;;;;;;42.60;16.92;;;14.00;99.90;;;;;;4937000;29;20059;-81
2022/09/10 00:12:50;;;;;;;42.37;16.27;;;14.00;99.90;;;;;;4936231;29;20071;-80
2022/09/10 00:15:16;;;;;;;47.92;17.15;;;14.00;99.90;;;;;;4935290;29;20055;-82
2022/09/10 00:17:43;;;;;;;41.92;17.38;;;13.90;99.90;;;;;;4936926;29;20380;-80
2022/09/10 00:20:09;;;;;;;41.10;16.77;;;13.90;99.90;;;;;;4935008;29;20131;-81
2022/09/10 00:22:35;;;;;;;44.60;17.58;;;13.90;99.90;;;;;;4935522;29;20492;-80
2022/09/10 00:25:01;;;;;;;45.70;18.60;;;13.80;99.90;;;;;;4937497;29;20048;-81
2022/09/10 00:27:27;;;;;;;47.92;17.83;;;13.80;99.90;;;;;;4937784;29;20052;-83
2022/09/10 00:29:53;;;;;;;48.00;19.00;;;13.80;99.90;;;;;;4940699;29;20063;-80
2022/09/10 00:32:20;;;;;;;45.65;19.10;;;13.90;99.90;;;;;;4943263;29;20172;-79
2022/09/10 00:34:47;;;;;;;50.47;18.75;;;14.00;99.90;;;;;;4946769;29;20111;-80
2022/09/10 00:37:13;;;;;;;50.33;18.60;;;14.00;99.90;;;;;;4946304;29;20054;-80
2022/09/10 00:39:40;;;;;;;45.58;18.67;;;14.10;99.90;;;;;;4938598;29;20079;-81
2022/09/10 00:42:08;;;;;;;45.43;19.23;;;14.10;99.90;;;;;;4937985;29;20090;-79
2022/09/10 00:44:40;;;;;;;56.03;20.50;;;14.20;99.90;;;;;;4938941;29;20058;-81
2022/09/10 00:47:17;;;;;;;49.47;18.92;;;14.20;99.90;;;;;;4942984;29;20047;-82
2022/09/10 00:49:47;;;;;;;;;;;14.20;99.90;;;;;;4941364;29;20108;-81
2022/09/10 00:52:13;;;;;;;54.65;19.90;;;14.30;99.90;;;;;;4940066;29;20013;-82
2022/09/10 00:54:41;;;;;;;48.55;20.02;;;14.30;99.90;;;;;;4940312;29;20052;-80
2022/09/10 00:57:11;;;;;;;46.72;19.83;;;14.30;99.90;;;;;;4940769;29;20056;-79
2022/09/10 00:59:43;;;;;;;51.15;20.45;;;14.40;99.90;;;;;;4923987;29;20381;-83
2022/09/10 01:02:09;;;;;;;53.72;21.55;;;14.40;99.90;;;;;;4940824;29;20070;-81
2022/09/10 01:04:35;;;;;;;52.72;20.60;;;14.40;99.90;;;;;;4940459;29;20039;-81
2022/09/10 01:07:01;;;;;;;50.53;20.80;;;14.50;99.90;;;;;;4939177;29;20063;-82
2022/09/10 01:09:28;;;;;;;48.65;19.73;;;14.50;99.90;;;;;;4939870;29;20051;-80
2022/09/10 01:12:12;;;;;;;;;;;14.50;99.90;;;;;;4941308;29;20082;-81
2022/09/10 01:15:15;;;;;;;43.10;18.27;;;14.60;99.90;;;;;;4941505;29;20016;-81
2022/09/10 01:18:10;;;;;;;46.13;18.00;;;14.60;99.90;;;;;;4959747;29;20372;-83
2022/09/10 01:20:45;;;;;;;44.88;19.13;;;14.60;99.90;;;;;;4926493;29;20194;-82
2022/09/10 01:23:42;;;;;;;47.50;19.55;;;14.60;99.90;;;;;;4942897;29;20043;-84
2022/09/10 01:26:19;;;;;;;53.78;19.63;;;14.70;99.90;;;;;;4941849;29;20039;-80
2022/09/10 01:28:50;;;;;;;51.15;20.80;;;14.60;99.90;;;;;;4958247;29;20458;-81
2022/09/10 01:31:27;;;;;;;46.88;19.23;;;14.60;99.90;;;;;;4958604;28;20150;-80
2022/09/10 01:34:02;;;;;;;48.42;19.77;;;14.60;99.90;;;;;;4958275;29;20043;-80
2022/09/10 01:36:37;;;;;;;54.38;20.50;;;14.70;99.90;;;;;;4941397;29;20047;-79
2022/09/10 01:39:03;;;;;;;50.05;20.85;;;14.70;99.90;;;;;;4957845;29;20047;-81
2022/09/10 01:41:30;;;;;;;46.78;19.83;;;14.70;99.90;;;;;;4941633;29;20376;-80
2022/09/10 01:43:56;;;;;;;48.75;20.98;;;14.70;99.90;;;;;;4940447;29;20051;-80
2022/09/10 01:46:56;;;;;;;50.70;20.83;;;14.80;99.90;;;;;;4959132;29;20047;-80
2022/09/10 01:49:25;;;;;;;51.28;19.98;;;14.70;99.90;;;;;;4940697;29;20166;-80
2022/09/10 01:52:07;;;;;;;54.45;20.08;;;14.80;99.90;;;;;;4941080;29;20047;-79
2022/09/10 01:54:58;;;;;;;48.10;20.58;;;14.80;99.90;;;;;;4940805;29;20047;-81
2022/09/10 01:58:09;;;;;;;54.30;20.73;;;14.80;99.90;;;;;;4941583;29;20344;-82
2022/09/10 02:00:40;;;;;;;45.10;19.75;;;14.80;99.90;;;;;;4955021;29;20051;-85
2022/09/10 02:03:10;;;;;;;49.00;20.02;;;14.80;99.90;;;;;;4958562;29;20055;-82
2022/09/10 02:05:40;;;;;;;51.58;19.77;;;14.80;99.90;;;;;;4957680;29;20083;-81
2022/09/10 02:08:19;;;;;;;50.13;19.75;;;14.80;99.90;;;;;;4941834;29;20047;-83
2022/09/10 02:11:00;;;;;;;50.92;20.73;;;14.80;99.90;;;;;;4942494;29;20055;-84
2022/09/10 02:13:29;;;;;;;52.95;19.55;;;14.80;99.90;;;;;;4924572;29;20523;-82
2022/09/10 02:15:56;;;;;;;48.97;19.70;;;14.80;99.90;;;;;;4925081;29;20090;-81
2022/09/10 02:18:23;;;;;;;60.45;21.80;;;14.80;99.90;;;;;;4925146;29;20090;-82
2022/09/10 02:20:50;;;;;;;;;;;14.80;99.90;;;;;;4958161;29;20404;-80
2022/09/10 02:23:17;;;;;;;;;;;14.70;99.90;;;;;;4941674;29;20392;-80
2022/09/10 02:25:43;;;;;;;53.47;20.13;;;14.70;99.90;;;;;;4942360;29;20268;-82
2022/09/10 02:28:09;;;;;;;54.08;20.75;;;14.80;99.90;;;;;;4957540;29;20051;-81
2022/09/10 02:30:35;;;;;;;55.55;22.00;;;14.80;99.90;;;;;;4957624;29;20070;-83
2022/09/10 02:33:01;;;;;;;60.30;20.92;;;14.80;99.90;;;;;;4942305;29;20493;-78
2022/09/10 02:35:27;;;;;;;53.60;21.33;;;14.80;99.90;;;;;;4942580;29;20051;-81
2022/09/10 02:37:53;;;;;;;56.17;22.52;;;14.80;99.90;;;;;;4959362;29;20086;-82
2022/09/10 02:40:18;;;;;;;54.72;21.85;;;14.80;99.90;;;;;;4923898;29;20419;-81
2022/09/10 02:42:45;;;;;;;65.50;22.38;;;14.80;99.90;;;;;;4940658;29;20050;-82
2022/09/10 02:45:14;;;;;;;53.70;21.73;;;14.80;99.90;;;;;;4957700;29;20043;-81
2022/09/10 02:47:40;;;;;;;58.05;21.80;;;14.80;99.90;;;;;;4957409;29;20058;-82
2022/09/10 02:50:07;;;;;;;58.20;20.90;;;14.80;99.90;;;;;;4956258;28;20101;-81
2022/09/10 02:52:33;;;;;;;;;;;14.80;99.90;;;;;;4957520;29;20051;-82
2022/09/10 02:54:59;;;;;;;58.57;20.93;;;14.80;99.90;;;;;;4939945;29;19929;-80
2022/09/10 02:57:25;;;;;;;54.35;20.48;;;14.80;99.90;;;;;;4939995;29;20566;-84
2022/09/10 02:59:52;;;;;;;56.13;21.53;;;14.90;99.90;;;;;;4940176;29;20362;-82
2022/09/10 03:02:19;;;;;;;55.70;21.00;;;14.90;99.90;;;;;;4940311;29;20463;-82
2022/09/10 03:04:45;;;;;;;56.97;21.75;;;14.90;99.90;;;;;;4956855;29;20054;-81
2022/09/10 03:07:15;;;;;;;59.78;21.63;;;14.90;99.90;;;;;;4924446;29;20051;-82
2022/09/10 03:09:41;;;;;;;52.40;20.40;;;14.90;99.90;;;;;;4939838;29;20369;-84
2022/09/10 03:12:07;;;;;;;60.10;21.40;;;14.90;99.90;;;;;;4939673;29;20102;-80
2022/09/10 03:14:33;;;;;;;60.47;21.50;;;14.90;99.90;;;;;;4942460;29;20043;-80
2022/09/10 03:16:59;;;;;;;57.50;21.65;;;14.90;99.90;;;;;;4956257;29;20053;-82
2022/09/10 03:19:25;;;;;;;60.00;22.73;;;14.90;99.90;;;;;;4960813;29;20055;-83
2022/09/10 03:21:51;;;;;;;55.55;21.83;;;15.00;99.90;;;;;;4941815;29;20070;-84
2022/09/10 03:24:18;;;;;;;60.17;23.05;;;14.90;99.90;;;;;;4940693;29;20051;-81
2022/09/10 03:26:43;;;;;;;54.90;21.33;;;14.90;99.90;;;;;;4945940;29;20058;-83
2022/09/10 03:29:09;;;;;;;55.38;22.10;;;14.90;99.90;;;;;;4969753;29;20103;-82
2022/09/10 03:31:35;;;;;;;56.10;21.58;;;14.90;99.90;;;;;;4937259;29;20156;-79
2022/09/10 03:34:02;;;;;;;62.58;22.08;;;15.00;99.90;;;;;;4951275;29;20035;-80
2022/09/10 03:36:30;;;;;;;52.75;21.35;;;15.00;99.90;;;;;;4943163;29;20412;-81
2022/09/10 03:38:57;;;;;;;60.20;22.10;;;14.90;99.90;;;;;;4942940;28;20106;-82
2022/09/10 03:41:24;;;;;;;61.30;22.90;;;15.00;99.90;;;;;;4961331;28;20102;-81
2022/09/10 03:43:52;;;;;;;64.55;22.88;;;14.90;99.90;;;;;;4943472;29;20067;-81
2022/09/10 03:46:18;;;;;;;57.25;21.75;;;14.90;99.90;;;;;;4942859;29;20118;-83
2022/09/10 03:48:44;;;;;;;58.80;23.85;;;15.00;99.90;;;;;;4944587;29;20047;-81
2022/09/10 03:51:10;;;;;;;69.83;22.83;;;14.90;99.90;;;;;;4941956;29;20066;-83
2022/09/10 03:53:37;;;;;;;60.70;22.48;;;15.00;99.90;;;;;;4925008;29;20862;-80
2022/09/10 03:56:03;;;;;;;62.45;22.48;;;15.00;99.90;;;;;;4929928;29;20055;-83
2022/09/10 03:58:31;;;;;;;57.57;22.30;;;15.00;99.90;;;;;;4925917;29;20070;-78
2022/09/10 04:00:57;;;;;;;65.68;22.00;;;15.00;99.90;;;;;;4957667;29;20076;-80
2022/09/10 04:03:23;;;;;;;61.70;21.43;;;15.00;99.90;;;;;;4940077;29;20043;-79
2022/09/10 04:05:49;;;;;;;60.30;22.88;;;15.00;99.90;;;;;;4957555;29;20090;-82
2022/09/10 04:08:15;;;;;;;60.63;22.30;;;15.00;99.90;;;;;;4925706;29;20047;-81
2022/09/10 04:10:43;;;;;;;54.77;21.80;;;15.10;99.90;;;;;;4940943;29;20047;-81
2022/09/10 04:13:09;;;;;;;63.63;22.75;;;15.10;99.90;;;;;;4939696;29;20438;-80
2022/09/10 04:15:36;;;;;;;58.53;21.70;;;15.10;99.90;;;;;;4955948;28;20090;-82
2022/09/10 04:18:02;;;;;;;56.22;21.70;;;15.10;99.90;;;;;;4963199;28;20043;-81
2022/09/10 04:20:28;;;;;;;62.30;22.57;;;15.10;99.90;;;;;;4959966;29;20157;-81
2022/09/10 04:22:55;;;;;;;62.30;21.80;;;15.10;99.90;;;;;;4920527;29;20185;-83
2022/09/10 04:25:21;;;;;;;;;;;15.10;99.90;;;;;;4937095;29;20055;-82
2022/09/10 04:27:48;;;;;;;63.40;22.00;;;15.00;99.90;;;;;;4964392;29;19922;-82
2022/09/10 04:30:15;;;;;;;61.70;21.50;;;15.10;99.90;;;;;;4927618;29;20051;-83
2022/09/10 04:32:41;;;;;;;62.97;22.80;;;15.10;99.90;;;;;;4958924;29;20058;-81
2022/09/10 04:35:07;;;;;;;59.60;21.38;;;15.10;99.90;;;;;;4939186;29;20055;-82
2022/09/10 04:37:34;;;;;;;69.05;23.42;;;15.10;99.90;;;;;;4940242;29;20090;-80
2022/09/10 04:39:59;;;;;;;71.93;22.75;;;15.10;99.90;;;;;;4942678;29;20046;-80
2022/09/10 04:42:27;;;;;;;73.20;22.77;;;15.20;99.90;;;;;;4930721;29;20047;-81
2022/09/10 04:44:53;;;;;;;72.18;24.17;;;15.10;99.90;;;;;;4947325;29;20143;-82
2022/09/10 04:47:19;;;;;;;69.40;23.00;;;15.10;99.90;;;;;;4933750;29;20461;-80
2022/09/10 04:49:45;;;;;;;80.13;23.65;;;15.10;99.90;;;;;;4967058;29;20059;-80
2022/09/10 04:52:12;;;;;;;74.45;24.77;;;15.10;99.90;;;;;;4941385;29;20115;-81
2022/09/10 04:54:38;;;;;;;80.37;24.20;;;15.10;99.90;;;;;;4957205;29;20047;-81
2022/09/10 04:57:05;;;;;;;64.18;22.60;;;15.10;99.90;;;;;;4926082;29;20142;-80
2022/09/10 04:59:31;;;;;;;;;;;15.10;99.90;;;;;;4941590;29;20052;-81
2022/09/10 05:01:57;;;;;;;64.20;21.52;;;15.10;99.90;;;;;;4941502;29;19922;-81
2022/09/10 05:04:23;;;;;;;74.28;24.30;;;15.20;99.90;;;;;;4958277;29;20054;-81
2022/09/10 05:06:49;;;;;;;74.15;23.50;;;15.10;99.90;;;;;;4922600;29;20047;-78
2022/09/10 05:09:19;;;;;;;78.28;25.00;;;15.10;99.90;;;;;;4923032;29;20047;-80
2022/09/10 05:11:46;;;;;;;85.70;25.05;;;15.10;99.90;;;;;;4922923;29;20040;-81
2022/09/10 05:14:12;;;;;;;90.78;25.40;;;15.10;99.90;;;;;;4958327;29;20058;-81
2022/09/10 05:16:38;;;;;;;73.30;24.65;;;15.10;99.90;;;;;;4955510;29;20129;-80
2022/09/10 05:19:05;;;;;;;72.82;24.48;;;15.10;99.90;;;;;;4955625;29;20039;-82
2022/09/10 05:21:31;;;;;;;80.50;24.23;;;15.10;99.90;;;;;;4955900;29;20108;-79
2022/09/10 05:23:57;;;;;;;85.37;25.20;;;15.10;99.90;;;;;;4922459;29;20055;-82
2022/09/10 05:26:24;;;;;;;84.28;25.50;;;15.10;99.90;;;;;;4923029;29;20051;-80
2022/09/10 05:28:52;;;;;;;83.82;24.30;;;15.10;99.90;;;;;;4957421;29;20096;-80
2022/09/10 05:31:21;;;;;;;83.47;26.02;;;15.10;99.90;;;;;;4926105;29;20126;-80
2022/09/10 05:33:47;;;;;;;86.18;25.80;;;15.10;99.90;;;;;;4943654;29;20062;-81
2022/09/10 05:36:13;;;;;;;84.88;25.35;;;15.10;99.90;;;;;;4961384;29;20396;-81
2022/09/10 05:38:39;;;;;;;86.78;25.55;;;15.10;99.90;;;;;;4930823;29;20342;-84
2022/09/10 05:41:09;;;;;;;91.07;26.97;;;15.10;99.90;;;;;;4964560;29;20107;-82
2022/09/10 05:43:35;;;;;;;79.40;25.67;;;15.20;99.90;;;;;;4950202;29;20463;-83
2022/09/10 05:46:02;;;;;;;83.55;25.35;;;15.10;99.90;;;;;;4938079;29;20074;-82
2022/09/10 05:48:27;;;;;;;83.15;26.73;;;15.20;99.90;;;;;;4936063;29;20098;-82
2022/09/10 05:50:53;;;;;;;82.35;24.83;;;15.20;99.90;;;;;;4970873;29;20350;-82
2022/09/10 05:53:20;;;;;;;85.77;24.97;;;15.20;99.90;;;;;;4951553;29;20039;-82
2022/09/10 05:55:46;;;;;;;79.95;26.73;;;15.20;99.90;;;;;;4952123;29;20051;-81
2022/09/10 05:58:12;;;;;;;84.15;24.55;;;15.30;99.90;;;;;;4970009;29;20094;-78
2022/09/10 06:00:39;;;;;;;85.30;25.80;;;15.20;99.90;;;;;;4931740;29;20134;-80
2022/09/10 06:03:04;;;;;;;94.90;27.17;;;15.20;99.90;;;;;;4960690;29;20152;-78
2022/09/10 06:05:31;;;;;;;80.57;24.83;;;15.20;99.90;;;;;;4962426;29;20051;-81
2022/09/10 06:07:56;;;;;;;83.40;25.20;;;15.30;99.90;;;;;;4931920;29;20077;-79
2022/09/10 06:10:22;;;;;;;94.60;27.13;;;15.30;99.90;;;;;;4930872;29;20058;-81
2022/09/10 06:12:50;;;;;;;87.28;25.45;;;15.30;99.90;;;;;;4966565;29;20066;-81
2022/09/10 06:15:18;;;;;;;79.07;25.38;;;15.40;99.90;;;;;;4966553;28;20051;-80
2022/09/10 06:17:44;;;;;;;78.35;26.20;;;15.40;99.90;;;;;;4966284;29;20126;-80
2022/09/10 06:20:11;;;;;;;88.03;26.35;;;15.60;99.90;;;;;;4950898;29;20051;-82
2022/09/10 06:22:37;;;;;;;;;;;15.60;99.90;;;;;;4949956;29;20154;-76
2022/09/10 06:25:03;;;;;;;72.53;24.03;;;15.60;99.90;;;;;;4953162;29;19923;-83
2022/09/10 06:27:30;;;;;;;85.50;25.13;;;15.60;99.90;;;;;;4939356;29;20057;-78
2022/09/10 06:29:57;;;;;;;75.95;24.73;;;15.60;99.90;;;;;;4973576;29;20051;-79
2022/09/10 06:32:24;;;;;;;78.75;23.55;;;15.70;99.90;;;;;;4951989;29;20067;-79
2022/09/10 06:34:49;;;;;;;77.38;24.30;;;15.80;99.90;;;;;;4948127;29;20048;-80
2022/09/10 06:37:16;;;;;;;80.35;25.27;;;15.80;99.90;;;;;;4963229;29;20077;-80
2022/09/10 06:39:42;;;;;;;75.85;24.40;;;15.90;99.90;;;;;;4947394;29;20130;-78
2022/09/10 06:42:08;;;;;;;81.72;25.60;;;15.90;99.90;;;;;;4963463;28;20082;-79
2022/09/10 06:44:34;;;;;;;68.97;23.75;;;16.00;99.90;;;;;;4965904;29;20062;-80
2022/09/10 06:47:01;;;;;;;67.03;24.38;;;16.00;99.90;;;;;;4967637;29;20047;-80
2022/09/10 06:49:28;;;;;;;86.15;25.33;;;16.10;99.90;;;;;;4937544;29;20051;-81
2022/09/10 06:51:55;;;;;;;75.18;24.20;;;16.20;99.90;;;;;;4957863;29;20055;-80
2022/09/10 06:54:20;;;;;;;80.07;24.08;;;16.20;99.90;;;;;;4971140;28;20082;-81
2022/09/10 06:56:49;;;;;;;75.75;24.83;;;16.20;99.90;;;;;;4943287;29;20134;-80
2022/09/10 06:59:17;;;;;;;70.35;24.55;;;16.20;99.90;;;;;;4962861;29;20114;-80
2022/09/10 07:01:42;;;;;;;78.65;24.52;;;16.20;99.90;;;;;;4967281;29;20047;-82
2022/09/10 07:04:09;;;;;;;74.38;25.42;;;16.20;99.90;;;;;;4974369;29;20542;-84
2022/09/10 07:06:35;;;;;;;81.72;28.63;;;16.20;99.90;;;;;;4971661;29;20047;-81
2022/09/10 07:09:03;;;;;;;87.28;32.92;;;16.20;99.90;;;;;;4935485;29;20043;-80
2022/09/10 07:11:31;;;;;;;85.32;30.45;;;16.20;99.90;;;;;;4964169;28;20050;-81
2022/09/10 07:13:58;;;;;;;73.05;26.55;;;16.20;99.90;;;;;;4968657;28;20109;-79
2022/09/10 07:16:25;;;;;;;81.30;30.33;;;16.30;99.90;;;;;;4962587;29;20066;-81
2022/09/10 07:18:54;;;;;;;75.38;28.65;;;16.20;99.90;;;;;;4944672;29;20055;-81
2022/09/10 07:21:21;;;;;;;71.57;29.13;;;16.20;99.90;;;;;;4949886;29;20062;-79
2022/09/10 07:23:47;;;;;;;72.85;27.92;;;16.20;99.90;;;;;;4931139;29;20054;-81
2022/09/10 07:26:15;;;;;;;71.90;25.88;;;16.20;99.90;;;;;;4962472;28;20052;-80
2022/09/10 07:28:42;;;;;;;66.70;24.83;;;16.30;99.90;;;;;;4927609;29;20059;-79
2022/09/10 07:31:14;;;;;;;65.35;23.65;;;16.30;99.90;;;;;;4943429;29;20051;-79
2022/09/10 07:33:40;;;;;;;64.43;23.33;;;16.40;99.90;;;;;;4944553;29;20043;-78
2022/09/10 07:36:07;;;;;;;70.22;26.52;;;16.40;99.90;;;;;;4947275;29;20081;-79
2022/09/10 07:38:33;;;;;;;58.80;22.40;;;16.50;99.90;;;;;;4944548;29;20081;-79
2022/09/10 07:41:00;;;;;;;72.43;23.10;;;16.60;99.90;;;;;;4960646;29;20059;-78
2022/09/10 07:43:26;;;;;;;62.85;22.02;;;16.70;99.90;;;;;;4958451;29;20070;-78
2022/09/10 07:45:51;;;;;;;71.85;23.27;;;16.80;99.90;;;;;;4928916;29;20047;-79
2022/09/10 07:48:17;;;;;;;57.00;21.30;;;16.90;99.90;;;;;;4961868;29;20142;-80
2022/09/10 07:50:44;;;;;;;57.13;22.02;;;17.00;99.90;;;;;;4945211;29;20077;-79
2022/09/10 07:53:10;;;;;;;58.15;20.55;;;17.00;99.90;;;;;;4942137;29;20110;-76
2022/09/10 07:55:36;;;;;;;59.78;20.50;;;17.10;99.90;;;;;;4940049;29;20051;-79
2022/09/10 07:58:02;;;;;;;48.93;18.83;;;17.10;99.90;;;;;;4927569;29;20051;-78
2022/09/10 08:00:28;;;;;;;50.70;19.88;;;17.10;99.90;;;;;;4958147;29;20051;-78
2022/09/10 08:02:54;;;;;;;53.45;21.02;;;17.20;99.90;;;;;;4941158;29;20349;-79
2022/09/10 08:05:22;;;;;;;55.40;20.35;;;17.20;99.90;;;;;;4960816;29;20090;-80
2022/09/10 08:07:50;;;;;;;54.75;19.25;;;17.20;99.90;;;;;;4943452;29;20098;-79
2022/09/10 08:10:18;;;;;;;61.35;20.38;;;17.20;99.90;;;;;;4941626;29;20488;-80
2022/09/10 08:12:44;;;;;;;57.03;20.58;;;17.20;99.90;;;;;;4939986;29;20056;-82
2022/09/10 08:15:10;;;;;;;51.95;19.25;;;17.20;99.90;;;;;;4942464;29;20051;-79
2022/09/10 08:17:35;;;;;;;50.72;18.67;;;17.20;99.90;;;;;;4941738;29;20151;-80
2022/09/10 08:20:09;;;;;;;57.97;20.57;;;17.20;99.90;;;;;;4939637;29;20044;-78
2022/09/10 08:22:34;;;;;;;54.40;21.48;;;17.20;99.90;;;;;;4940662;29;20091;-78
2022/09/10 08:25:01;;;;;;;59.05;21.85;;;17.30;99.90;;;;;;4938229;29;20044;-79
2022/09/10 08:27:27;;;;;;;57.97;21.38;;;17.30;99.90;;;;;;4939329;29;20044;-78
2022/09/10 08:29:53;;;;;;;51.08;20.02;;;17.40;99.90;;;;;;4939038;29;20175;-76
2022/09/10 08:32:20;;;;;;;61.60;20.10;;;17.50;99.90;;;;;;4937702;29;20475;-78
2022/09/10 08:34:47;;;;;;;54.20;19.33;;;17.60;99.90;;;;;;4937368;29;20055;-79
2022/09/10 08:37:15;;;;;;;53.85;18.73;;;17.60;99.90;;;;;;4921641;29;20051;-78
2022/09/10 08:39:40;;;;;;;48.25;18.50;;;17.60;99.90;;;;;;4921232;29;20063;-76
2022/09/10 08:42:20;;;;;;;52.90;19.50;;;17.60;99.90;;;;;;4938638;29;20056;-77
2022/09/10 08:44:57;;;;;;;51.95;19.00;;;17.60;99.90;;;;;;4937578;29;20171;-76
2022/09/10 08:47:31;;;;;;;47.78;19.15;;;17.60;99.90;;;;;;4936942;29;20075;-77
2022/09/10 08:49:59;;;;;;;48.55;19.20;;;17.70;99.90;;;;;;4936152;29;20062;-78
2022/09/10 08:52:32;;;;;;;50.33;19.33;;;17.70;99.90;;;;;;4937808;29;20138;-80
2022/09/10 08:55:16;;;;;;;51.30;18.52;;;17.90;99.90;;;;;;4938606;29;20535;-78
2022/09/10 08:58:10;;;;;;;48.92;18.80;;;18.00;99.90;;;;;;4936717;29;20052;-80
2022/09/10 09:00:39;;;;;;;47.03;17.27;;;18.20;99.90;;;;;;4937026;29;20341;-79
2022/09/10 09:03:04;;;;;;;42.60;17.08;;;18.20;99.90;;;;;;4935432;29;20100;-75
2022/09/10 09:06:00;;;;;;;46.83;17.63;;;18.30;99.90;;;;;;4939197;29;20048;-78
2022/09/10 09:08:34;;;;;;;39.95;15.43;;;18.50;99.90;;;;;;4942195;29;20101;-77
2022/09/10 09:11:11;;;;;;;41.60;15.55;;;18.60;99.90;;;;;;4940090;29;20055;-78
2022/09/10 09:13:43;;;;;;;33.83;15.40;;;18.60;99.90;;;;;;4942115;29;20055;-78
2022/09/10 09:16:27;;;;;;;35.25;13.93;;;18.50;99.90;;;;;;4943781;29;20154;-78
2022/09/10 09:19:23;;;;;;;46.67;19.50;;;18.60;99.90;;;;;;4954318;28;20090;-77
2022/09/10 09:21:54;;;;;;;39.10;15.80;;;18.70;99.90;;;;;;4954980;29;20066;-77
2022/09/10 09:24:40;;;;;;;33.30;14.63;;;18.90;99.90;;;;;;4957437;29;20055;-80
2022/09/10 09:27:14;;;;;;;39.67;16.73;;;19.10;99.90;;;;;;4961307;28;20050;-76
2022/09/10 09:29:49;;;;;;;35.30;14.07;;;19.20;99.90;;;;;;4957437;29;20118;-76
2022/09/10 09:32:19;;;;;;;35.10;13.38;;;19.20;99.90;;;;;;4936827;29;20054;-76
2022/09/10 09:35:29;;;;;;;33.03;12.73;;;18.70;99.90;;;;;;4951659;29;20465;-76
2022/09/10 09:38:19;;;;;;;29.90;12.35;;;18.80;99.90;;;;;;4951982;29;20095;-74
2022/09/10 09:40:55;;;;;;;30.33;13.15;;;18.70;99.90;;;;;;4950037;29;20447;-74
2022/09/10 09:43:53;;;;;;;28.63;13.15;;;18.60;99.90;;;;;;4951814;29;20051;-76
2022/09/10 09:46:21;;;;;;;32.35;13.90;;;18.60;99.90;;;;;;4950671;29;20053;-78
2022/09/10 09:48:52;;;;;;;33.38;14.35;;;18.60;99.90;;;;;;4949022;29;20060;-76
2022/09/10 09:51:19;;;;;;;35.63;14.43;;;18.60;99.90;;;;;;4950357;29;20122;-77
2022/09/10 09:53:48;;;;;;;35.00;14.02;;;18.50;99.90;;;;;;4946361;29;20397;-78
2022/09/10 09:56:44;;;;;;;31.15;14.48;;;18.50;99.90;;;;;;4952268;29;20087;-77
2022/09/10 09:59:26;;;;;;;;;;;18.60;99.90;;;;;;4950502;29;20121;-77
2022/09/10 10:01:53;;;;;;;35.28;13.23;;;18.50;99.90;;;;;;4948867;29;19930;-77
2022/09/10 10:04:22;;;;;;;34.20;15.18;;;18.70;99.90;;;;;;4948723;29;20130;-77
2022/09/10 10:06:59;;;;;;;35.30;14.70;;;18.90;99.90;;;;;;4948142;29;20392;-76
2022/09/10 10:09:35;;;;;;;30.13;13.18;;;19.10;99.90;;;;;;4948982;29;20063;-79
2022/09/10 10:12:04;;;;;;;32.45;14.25;;;19.30;99.90;;;;;;4936551;29;20048;-77
2022/09/10 10:14:30;;;;;;;25.10;12.07;;;19.50;99.90;;;;;;4968991;29;20061;-77
2022/09/10 10:16:59;;;;;;;34.57;13.67;;;19.50;99.90;;;;;;4969777;28;20047;-79
2022/09/10 10:19:33;;;;;;;29.08;13.32;;;19.60;99.90;;;;;;4970090;28;20065;-76
2022/09/10 10:22:18;;;;;;;27.27;12.15;;;19.90;99.90;;;;;;4936408;29;20063;-76
2022/09/10 10:24:46;;;;;;;26.23;11.85;;;20.10;99.90;;;;;;4951702;29;20066;-78
2022/09/10 10:27:34;;;;;;;20.55;9.55;;;20.30;99.90;;;;;;4966599;29;20046;-78
2022/09/10 10:30:10;;;;;;;16.45;7.65;;;20.50;99.90;;;;;;4967456;29;20103;-77
2022/09/10 10:32:43;;;;;;;13.65;7.07;;;20.60;99.90;;;;;;4967096;29;20055;-77
2022/09/10 10:35:45;;;;;;;17.38;7.75;;;20.60;99.90;;;;;;4949415;29;20062;-78
2022/09/10 10:38:33;;;;;;;19.85;7.95;;;21.00;99.90;;;;;;4967953;29;20048;-77
2022/09/10 10:41:08;;;;;;;15.55;6.50;;;21.00;99.90;;;;;;4967313;29;20055;-78
2022/09/10 10:43:49;;;;;;;16.45;6.15;;;21.20;99.90;;;;;;4968211;29;20126;-79
2022/09/10 10:46:59;;;;;;;14.90;6.35;;;21.30;99.90;;;;;;4948864;29;20047;-78
2022/09/10 10:50:20;;;;;;;12.70;6.45;;;21.40;99.90;;;;;;4951443;29;20048;-78
2022/09/10 10:53:00;;;;;;;13.82;5.72;;;21.10;99.90;;;;;;4908767;29;20067;-77
2022/09/10 10:55:33;;;;;;;10.80;5.22;;;21.40;99.90;;;;;;4963286;29;20122;-76
2022/09/10 10:58:12;;;;;;;12.45;5.68;;;21.40;99.90;;;;;;4949332;29;20074;-77
2022/09/10 11:00:46;;;;;;;9.13;5.00;;;21.50;99.90;;;;;;4970580;29;20106;-78
2022/09/10 11:03:23;;;;;;;13.80;6.20;;;21.80;99.90;;;;;;4937548;29;20111;-79
2022/09/10 11:05:59;;;;;;;10.82;5.13;;;21.80;99.90;;;;;;4948973;29;20158;-77
2022/09/10 11:08:54;;;;;;;16.67;4.90;;;22.00;99.90;;;;;;4967286;29;20133;-77
2022/09/10 11:12:04;;;;;;;11.70;4.20;;;21.90;99.90;;;;;;4966057;29;20055;-76
2022/09/10 11:14:55;;;;;;;9.63;4.40;;;21.90;99.90;;;;;;4907404;29;20077;-77
2022/09/10 11:17:41;;;;;;;11.93;3.78;;;21.90;99.90;;;;;;4907040;29;20391;-77
2022/09/10 11:20:22;;;;;;;11.13;3.60;;;21.90;99.90;;;;;;4954175;29;20555;-80
2022/09/10 11:23:11;;;;;;;9.88;3.35;;;21.90;99.90;;;;;;4969589;29;20055;-78
2022/09/10 11:26:03;;;;;;;10.23;3.45;;;21.70;99.90;;;;;;4948022;29;20050;-76
2022/09/10 11:28:37;;;;;;;8.10;2.95;;;21.30;99.90;;;;;;4942205;29;20563;-78
2022/09/10 11:34:42;;;;;;;11.90;5.15;;;21.10;99.90;;;;;;4913795;29;20051;-82
2022/09/10 11:37:46;;;;;;;14.52;6.28;;;21.30;99.90;;;;;;4967447;28;20062;-80
2022/09/10 11:40:34;;;;;;;15.10;5.70;;;21.50;99.90;;;;;;4966846;29;20547;-76
2022/09/10 11:43:11;;;;;;;13.02;5.43;;;21.20;99.90;;;;;;4949346;29;20102;-76
2022/09/10 11:45:52;;;;;;;13.25;6.18;;;21.30;99.90;;;;;;4966952;29;20065;-78
2022/09/10 11:48:46;;;;;;;17.83;6.80;;;21.60;99.90;;;;;;4950209;29;20408;-78
2022/09/10 11:51:16;;;;;;;16.25;6.07;;;;;;;;;;4949259;29;20055;-79
2022/09/10 11:53:43;;;;;;;15.60;6.43;;;22.00;99.90;;;;;;4950881;29;20103;-78
2022/09/10 11:56:35;;;;;;;13.10;5.70;;;22.20;99.90;;;;;;4934625;29;20051;-79
2022/09/10 11:59:35;;;;;;;12.30;5.00;;;22.50;99.90;;;;;;4951265;29;20047;-80
2022/09/10 12:02:17;;;;;;;11.88;5.25;;;22.50;99.90;;;;;;4967173;29;20135;-79
2022/09/10 12:05:18;;;;;;;14.95;5.93;;;22.60;99.90;;;;;;4949903;29;20055;-81
2022/09/10 12:07:47;;;;;;;11.18;5.82;;;22.80;99.90;;;;;;4967261;29;20051;-78
2022/09/10 12:10:13;;;;;;;12.45;5.95;;;23.10;99.90;;;;;;4935602;29;20082;-78
2022/09/10 12:12:42;;;;;;;15.50;6.30;;;22.90;99.90;;;;;;4939147;29;20051;-78
2022/09/10 12:15:23;;;;;;;14.05;5.80;;;23.00;99.90;;;;;;4971386;29;20051;-78
2022/09/10 12:18:13;;;;;;;13.25;5.88;;;23.30;99.90;;;;;;4955805;29;20058;-78
2022/09/10 12:21:07;;;;;;;11.68;4.88;;;23.50;99.90;;;;;;4955035;29;20051;-78
2022/09/10 12:23:38;;;;;;;14.27;7.05;;;23.50;99.90;;;;;;4956520;29;20122;-77
2022/09/10 12:26:07;;;;;;;15.65;7.45;;;23.30;99.90;;;;;;4956769;29;20160;-74
2022/09/10 12:28:42;;;;;;;29.27;9.23;;;22.50;99.90;;;;;;4971124;29;20047;-76
2022/09/10 12:31:10;;;;;;;22.40;9.10;;;22.10;99.90;;;;;;4969182;29;20392;-75
2022/09/10 12:34:06;;;;;;;22.20;8.80;;;21.60;99.90;;;;;;4969988;29;20073;-76
2022/09/10 12:36:31;;;;;;;19.52;9.70;;;21.20;99.90;;;;;;4968757;29;20051;-76
2022/09/10 12:39:19;;;;;;;23.30;8.90;;;20.60;99.90;;;;;;4967047;28;20074;-78
2022/09/10 12:41:44;;;;;;;20.02;9.40;;;20.50;99.90;;;;;;4953146;29;20063;-77
2022/09/10 12:44:47;;;;;;;21.93;9.97;;;20.40;99.90;;;;;;4952786;29;20113;-80
2022/09/10 12:47:15;;;;;;;19.17;9.35;;;20.00;99.90;;;;;;4968645;29;20055;-76
2022/09/10 12:49:59;;;;;;;17.70;8.65;;;20.10;99.90;;;;;;4950887;29;20126;-78
2022/09/10 12:52:40;;;;;;;19.50;9.18;;;20.20;99.90;;;;;;4966584;29;20086;-75
2022/09/10 12:55:43;;;;;;;20.52;8.27;;;19.90;99.90;;;;;;4968323;29;20058;-77
2022/09/10 12:58:21;;;;;;;21.90;8.48;;;20.20;99.90;;;;;;4969310;29;20047;-75
2022/09/10 13:00:56;;;;;;;20.20;9.23;;;20.10;99.90;;;;;;4968741;29;20051;-77